sensor_id;sensor_type;location;lat;lon;timestamp;temperature;humidity
8269;DHT22;4174;48.304;16.364;2023-01-10T00:00:27;8.30;99.90
8269;DHT22;4174;48.304;16.364;2023-01-10T00:06:29;8.30;99.90
8269;DHT22;4174;48.304;16.364;2023-01-10T00:12:33;8.30;99.90
8269;DHT22;4174;48.304;16.364;2023-01-10T00:18:42;8.30;99.90
8269;DHT22;4174;48.304;16.364;2023-01-10T00:24:46;8.20;99.90
8269;DHT22;4174;48.304;16.364;2023-01-10T00:30:50;8.20;99.90
8269;DHT22;4174;48.304;16.364;2023-01-10T00:36:56;8.20;99.90
8269;DHT22;4174;48.304;16.364;2023-01-10T00:43:00;8.30;99.90
8269;DHT22;4174;48.304;16.364;2023-01-10T00:49:08;8.20;99.90
8269;DHT22;4174;48.304;16.364;2023-01-10T00:55:12;8.20;99.90
8269;DHT22;4174;48.304;16.364;2023-01-10T01:01:15;8.20;99.90
8269;DHT22;4174;48.304;16.364;2023-01-10T01:07:18;8.20;99.90
8269;DHT22;4174;48.304;16.364;2023-01-10T01:13:23;8.30;99.90
8269;DHT22;4174;48.304;16.364;2023-01-10T01:19:27;8.30;99.90
8269;DHT22;4174;48.304;16.364;2023-01-10T01:25:30;8.20;99.90
8269;DHT22;4174;48.304;16.364;2023-01-10T01:31:34;8.30;99.90
8269;DHT22;4174;48.304;16.364;2023-01-10T01:37:38;8.30;99.90
8269;DHT22;4174;48.304;16.364;2023-01-10T01:44:19;8.20;99.90
8269;DHT22;4174;48.304;16.364;2023-01-10T01:50:39;8.20;99.90
8269;DHT22;4174;48.304;16.364;2023-01-10T01:56:26;8.30;99.90
8269;DHT22;4174;48.304;16.364;2023-01-10T02:02:29;8.30;99.90
8269;DHT22;4174;48.304;16.364;2023-01-10T02:08:30;8.40;99.90
8269;DHT22;4174;48.304;16.364;2023-01-10T02:14:33;8.40;99.90
8269;DHT22;4174;48.304;16.364;2023-01-10T02:20:38;8.30;99.90
8269;DHT22;4174;48.304;16.364;2023-01-10T02:26:45;8.40;99.90
8269;DHT22;4174;48.304;16.364;2023-01-10T02:32:49;8.40;99.90
8269;DHT22;4174;48.304;16.364;2023-01-10T02:45:28;8.30;99.90
8269;DHT22;4174;48.304;16.364;2023-01-10T02:51:32;8.30;99.90
8269;DHT22;4174;48.304;16.364;2023-01-10T02:57:46;8.30;99.90
8269;DHT22;4174;48.304;16.364;2023-01-10T03:03:54;8.30;99.90
8269;DHT22;4174;48.304;16.364;2023-01-10T03:09:55;8.40;99.90
8269;DHT22;4174;48.304;16.364;2023-01-10T03:16:14;8.40;99.90
8269;DHT22;4174;48.304;16.364;2023-01-10T03:22:16;8.40;99.90
8269;DHT22;4174;48.304;16.364;2023-01-10T03:28:40;8.30;99.90
8269;DHT22;4174;48.304;16.364;2023-01-10T03:34:50;8.20;99.90
8269;DHT22;4174;48.304;16.364;2023-01-10T03:40:58;7.90;99.90
8269;DHT22;4174;48.304;16.364;2023-01-10T03:47:04;7.90;99.90
8269;DHT22;4174;48.304;16.364;2023-01-10T03:53:11;7.90;99.90
8269;DHT22;4174;48.304;16.364;2023-01-10T03:59:13;7.90;99.90
8269;DHT22;4174;48.304;16.364;2023-01-10T04:05:16;7.80;99.90
8269;DHT22;4174;48.304;16.364;2023-01-10T04:11:20;7.80;99.90
8269;DHT22;4174;48.304;16.364;2023-01-10T04:17:25;7.80;99.90
8269;DHT22;4174;48.304;16.364;2023-01-10T04:23:28;7.80;99.90
8269;DHT22;4174;48.304;16.364;2023-01-10T04:29:32;7.60;99.90
8269;DHT22;4174;48.304;16.364;2023-01-10T04:35:35;7.60;99.90
8269;DHT22;4174;48.304;16.364;2023-01-10T04:41:39;7.60;99.90
8269;DHT22;4174;48.304;16.364;2023-01-10T04:47:43;7.60;99.90
8269;DHT22;4174;48.304;16.364;2023-01-10T04:53:46;7.50;99.90
8269;DHT22;4174;48.304;16.364;2023-01-10T04:59:49;7.50;99.90
8269;DHT22;4174;48.304;16.364;2023-01-10T05:05:53;7.40;99.90
8269;DHT22;4174;48.304;16.364;2023-01-10T05:11:56;7.40;99.90
8269;DHT22;4174;48.304;16.364;2023-01-10T05:17:59;7.50;99.90
8269;DHT22;4174;48.304;16.364;2023-01-10T05:24:03;7.50;99.90
8269;DHT22;4174;48.304;16.364;2023-01-10T05:30:11;7.50;99.90
8269;DHT22;4174;48.304;16.364;2023-01-10T05:36:15;7.40;99.90
8269;DHT22;4174;48.304;16.364;2023-01-10T05:42:18;7.40;99.90
8269;DHT22;4174;48.304;16.364;2023-01-10T05:48:22;7.40;99.90
8269;DHT22;4174;48.304;16.364;2023-01-10T05:54:25;7.30;99.90
8269;DHT22;4174;48.304;16.364;2023-01-10T06:00:29;7.30;99.90
8269;DHT22;4174;48.304;16.364;2023-01-10T06:06:32;7.40;99.90
8269;DHT22;4174;48.304;16.364;2023-01-10T06:12:38;7.50;99.90
8269;DHT22;4174;48.304;16.364;2023-01-10T06:18:39;7.40;99.90
8269;DHT22;4174;48.304;16.364;2023-01-10T06:24:43;7.50;99.90
8269;DHT22;4174;48.304;16.364;2023-01-10T06:30:46;7.50;99.90
8269;DHT22;4174;48.304;16.364;2023-01-10T06:36:49;7.50;99.90
8269;DHT22;4174;48.304;16.364;2023-01-10T06:42:54;7.50;99.90
8269;DHT22;4174;48.304;16.364;2023-01-10T06:48:58;7.50;99.90
8269;DHT22;4174;48.304;16.364;2023-01-10T06:55:02;7.40;99.90
8269;DHT22;4174;48.304;16.364;2023-01-10T07:01:13;7.40;99.90
8269;DHT22;4174;48.304;16.364;2023-01-10T07:07:15;7.40;99.90
8269;DHT22;4174;48.304;16.364;2023-01-10T07:13:20;7.50;99.90
8269;DHT22;4174;48.304;16.364;2023-01-10T07:19:23;7.50;99.90
8269;DHT22;4174;48.304;16.364;2023-01-10T07:25:27;7.50;99.90
8269;DHT22;4174;48.304;16.364;2023-01-10T07:31:29;7.50;99.90
8269;DHT22;4174;48.304;16.364;2023-01-10T07:37:32;7.50;99.90
8269;DHT22;4174;48.304;16.364;2023-01-10T07:43:36;7.60;99.90
8269;DHT22;4174;48.304;16.364;2023-01-10T07:49:39;7.60;99.90
8269;DHT22;4174;48.304;16.364;2023-01-10T07:55:42;7.70;99.90
8269;DHT22;4174;48.304;16.364;2023-01-10T08:01:46;7.70;99.90
8269;DHT22;4174;48.304;16.364;2023-01-10T08:07:50;7.70;99.90
8269;DHT22;4174;48.304;16.364;2023-01-10T08:13:54;7.80;99.90
8269;DHT22;4174;48.304;16.364;2023-01-10T08:19:58;7.70;99.90
8269;DHT22;4174;48.304;16.364;2023-01-10T08:26:02;7.80;99.90
8269;DHT22;4174;48.304;16.364;2023-01-10T08:32:05;7.90;99.90
8269;DHT22;4174;48.304;16.364;2023-01-10T08:38:09;8.00;99.90
8269;DHT22;4174;48.304;16.364;2023-01-10T08:44:12;8.00;99.90
8269;DHT22;4174;48.304;16.364;2023-01-10T08:50:16;8.00;99.90
8269;DHT22;4174;48.304;16.364;2023-01-10T08:56:20;8.20;99.90
8269;DHT22;4174;48.304;16.364;2023-01-10T09:02:24;8.20;99.90
8269;DHT22;4174;48.304;16.364;2023-01-10T09:08:28;8.10;99.90
8269;DHT22;4174;48.304;16.364;2023-01-10T09:14:32;8.30;99.90
8269;DHT22;4174;48.304;16.364;2023-01-10T09:20:36;8.40;99.90
8269;DHT22;4174;48.304;16.364;2023-01-10T09:26:38;8.40;99.90
8269;DHT22;4174;48.304;16.364;2023-01-10T09:32:43;8.40;99.90
8269;DHT22;4174;48.304;16.364;2023-01-10T09:38:46;8.40;99.90
8269;DHT22;4174;48.304;16.364;2023-01-10T09:51:28;8.50;99.90
8269;DHT22;4174;48.304;16.364;2023-01-10T09:57:30;8.60;99.90
8269;DHT22;4174;48.304;16.364;2023-01-10T10:03:37;8.70;99.90
8269;DHT22;4174;48.304;16.364;2023-01-10T10:09:53;8.50;99.90
8269;DHT22;4174;48.304;16.364;2023-01-10T10:16:07;8.80;99.90
8269;DHT22;4174;48.304;16.364;2023-01-10T10:23:40;8.80;99.90
8269;DHT22;4174;48.304;16.364;2023-01-10T10:29:30;8.90;99.90
8269;DHT22;4174;48.304;16.364;2023-01-10T10:35:52;9.00;99.90
8269;DHT22;4174;48.304;16.364;2023-01-10T10:41:54;9.10;99.90
8269;DHT22;4174;48.304;16.364;2023-01-10T10:47:59;9.20;99.90
8269;DHT22;4174;48.304;16.364;2023-01-10T10:54:01;9.10;99.90
8269;DHT22;4174;48.304;16.364;2023-01-10T11:00:07;9.20;99.90
8269;DHT22;4174;48.304;16.364;2023-01-10T11:06:11;9.20;99.90
8269;DHT22;4174;48.304;16.364;2023-01-10T11:12:14;9.50;99.90
8269;DHT22;4174;48.304;16.364;2023-01-10T11:18:19;9.90;99.90
8269;DHT22;4174;48.304;16.364;2023-01-10T11:24:26;9.80;99.90
8269;DHT22;4174;48.304;16.364;2023-01-10T11:30:30;9.90;99.90
8269;DHT22;4174;48.304;16.364;2023-01-10T11:36:55;9.80;99.90
8269;DHT22;4174;48.304;16.364;2023-01-10T11:42:57;10.10;99.90
8269;DHT22;4174;48.304;16.364;2023-01-10T11:49:04;10.40;99.90
8269;DHT22;4174;48.304;16.364;2023-01-10T11:55:07;10.70;99.90
8269;DHT22;4174;48.304;16.364;2023-01-10T12:01:23;10.70;99.90
8269;DHT22;4174;48.304;16.364;2023-01-10T12:07:29;10.70;99.90
8269;DHT22;4174;48.304;16.364;2023-01-10T12:13:45;10.80;99.90
8269;DHT22;4174;48.304;16.364;2023-01-10T12:19:50;11.00;99.90
8269;DHT22;4174;48.304;16.364;2023-01-10T12:25:52;11.50;99.90
8269;DHT22;4174;48.304;16.364;2023-01-10T12:31:55;11.80;99.90
8269;DHT22;4174;48.304;16.364;2023-01-10T12:38:04;11.50;99.90
8269;DHT22;4174;48.304;16.364;2023-01-10T12:44:11;11.50;99.90
8269;DHT22;4174;48.304;16.364;2023-01-10T12:50:30;11.50;99.90
8269;DHT22;4174;48.304;16.364;2023-01-10T12:56:39;11.50;99.90
8269;DHT22;4174;48.304;16.364;2023-01-10T13:02:42;11.30;99.90
8269;DHT22;4174;48.304;16.364;2023-01-10T13:08:44;10.90;99.90
8269;DHT22;4174;48.304;16.364;2023-01-10T13:14:56;10.70;99.90
8269;DHT22;4174;48.304;16.364;2023-01-10T13:21:02;10.60;99.90
8269;DHT22;4174;48.304;16.364;2023-01-10T13:27:05;10.30;99.90
8269;DHT22;4174;48.304;16.364;2023-01-10T13:33:19;10.00;99.90
8269;DHT22;4174;48.304;16.364;2023-01-10T13:39:37;9.90;99.90
8269;DHT22;4174;48.304;16.364;2023-01-10T13:45:40;9.90;99.90
8269;DHT22;4174;48.304;16.364;2023-01-10T13:58:39;9.90;99.90
8269;DHT22;4174;48.304;16.364;2023-01-10T14:04:48;9.80;99.90
8269;DHT22;4174;48.304;16.364;2023-01-10T14:11:07;9.70;99.90
8269;DHT22;4174;48.304;16.364;2023-01-10T14:17:28;9.70;99.90
8269;DHT22;4174;48.304;16.364;2023-01-10T14:23:48;9.60;99.90
8269;DHT22;4174;48.304;16.364;2023-01-10T14:29:54;9.60;99.90
8269;DHT22;4174;48.304;16.364;2023-01-10T14:35:58;9.40;99.90
8269;DHT22;4174;48.304;16.364;2023-01-10T14:42:01;9.30;99.90
8269;DHT22;4174;48.304;16.364;2023-01-10T14:48:16;9.30;99.90
8269;DHT22;4174;48.304;16.364;2023-01-10T14:54:25;9.20;99.90
8269;DHT22;4174;48.304;16.364;2023-01-10T15:00:30;9.30;99.90
8269;DHT22;4174;48.304;16.364;2023-01-10T15:12:58;9.20;99.90
8269;DHT22;4174;48.304;16.364;2023-01-10T15:18:59;9.20;99.90
8269;DHT22;4174;48.304;16.364;2023-01-10T15:25:06;9.10;99.90
8269;DHT22;4174;48.304;16.364;2023-01-10T15:31:24;9.00;99.90
8269;DHT22;4174;48.304;16.364;2023-01-10T15:37:28;9.00;99.90
8269;DHT22;4174;48.304;16.364;2023-01-10T15:43:30;9.00;99.90
8269;DHT22;4174;48.304;16.364;2023-01-10T15:49:33;9.00;99.90
8269;DHT22;4174;48.304;16.364;2023-01-10T15:55:43;8.80;99.90
8269;DHT22;4174;48.304;16.364;2023-01-10T16:01:52;8.80;99.90
8269;DHT22;4174;48.304;16.364;2023-01-10T16:08:10;8.60;99.90
8269;DHT22;4174;48.304;16.364;2023-01-10T16:14:13;8.60;99.90
8269;DHT22;4174;48.304;16.364;2023-01-10T16:20:17;8.50;99.90
8269;DHT22;4174;48.304;16.364;2023-01-10T16:26:19;8.60;99.90
8269;DHT22;4174;48.304;16.364;2023-01-10T16:32:22;8.40;99.90
8269;DHT22;4174;48.304;16.364;2023-01-10T16:38:26;8.40;99.90
8269;DHT22;4174;48.304;16.364;2023-01-10T16:44:29;8.40;99.90
8269;DHT22;4174;48.304;16.364;2023-01-10T16:50:31;8.40;99.90
8269;DHT22;4174;48.304;16.364;2023-01-10T16:56:34;8.50;99.90
8269;DHT22;4174;48.304;16.364;2023-01-10T17:02:39;8.50;99.90
8269;DHT22;4174;48.304;16.364;2023-01-10T17:08:42;8.60;99.90
8269;DHT22;4174;48.304;16.364;2023-01-10T17:14:44;8.60;99.90
8269;DHT22;4174;48.304;16.364;2023-01-10T17:20:47;8.50;99.90
8269;DHT22;4174;48.304;16.364;2023-01-10T17:26:51;8.30;99.90
8269;DHT22;4174;48.304;16.364;2023-01-10T17:32:55;8.30;99.90
8269;DHT22;4174;48.304;16.364;2023-01-10T17:38:59;8.30;99.90
8269;DHT22;4174;48.304;16.364;2023-01-10T17:45:02;8.30;99.90
8269;DHT22;4174;48.304;16.364;2023-01-10T17:51:07;8.30;99.90
8269;DHT22;4174;48.304;16.364;2023-01-10T17:57:10;8.20;99.90
8269;DHT22;4174;48.304;16.364;2023-01-10T18:03:14;8.30;99.90
8269;DHT22;4174;48.304;16.364;2023-01-10T18:09:16;8.30;99.90
8269;DHT22;4174;48.304;16.364;2023-01-10T18:15:19;8.40;99.90
8269;DHT22;4174;48.304;16.364;2023-01-10T18:21:22;8.30;99.90
8269;DHT22;4174;48.304;16.364;2023-01-10T18:27:25;8.40;99.90
8269;DHT22;4174;48.304;16.364;2023-01-10T18:33:28;8.40;99.90
8269;DHT22;4174;48.304;16.364;2023-01-10T18:39:32;8.40;99.90
8269;DHT22;4174;48.304;16.364;2023-01-10T18:45:36;8.20;99.90
8269;DHT22;4174;48.304;16.364;2023-01-10T18:51:40;8.20;99.90
8269;DHT22;4174;48.304;16.364;2023-01-10T18:57:44;8.20;99.90
8269;DHT22;4174;48.304;16.364;2023-01-10T19:03:48;8.20;99.90
8269;DHT22;4174;48.304;16.364;2023-01-10T19:09:51;8.00;99.90
8269;DHT22;4174;48.304;16.364;2023-01-10T19:16:05;8.00;99.90
8269;DHT22;4174;48.304;16.364;2023-01-10T19:21:57;8.00;99.90
8269;DHT22;4174;48.304;16.364;2023-01-10T19:28:00;8.00;99.90
8269;DHT22;4174;48.304;16.364;2023-01-10T19:34:03;7.90;99.90
8269;DHT22;4174;48.304;16.364;2023-01-10T19:40:08;7.90;99.90
8269;DHT22;4174;48.304;16.364;2023-01-10T19:46:13;7.90;99.90
8269;DHT22;4174;48.304;16.364;2023-01-10T19:52:17;8.10;99.90
8269;DHT22;4174;48.304;16.364;2023-01-10T19:58:21;8.10;99.90
8269;DHT22;4174;48.304;16.364;2023-01-10T20:04:27;8.10;99.90
8269;DHT22;4174;48.304;16.364;2023-01-10T20:10:30;8.20;99.90
8269;DHT22;4174;48.304;16.364;2023-01-10T20:16:33;8.10;99.90
8269;DHT22;4174;48.304;16.364;2023-01-10T20:22:37;8.10;99.90
8269;DHT22;4174;48.304;16.364;2023-01-10T20:28:40;8.10;99.90
8269;DHT22;4174;48.304;16.364;2023-01-10T20:34:43;8.00;99.90
8269;DHT22;4174;48.304;16.364;2023-01-10T20:40:46;7.80;99.90
8269;DHT22;4174;48.304;16.364;2023-01-10T20:46:50;7.80;99.90
8269;DHT22;4174;48.304;16.364;2023-01-10T20:52:53;7.60;99.90
8269;DHT22;4174;48.304;16.364;2023-01-10T20:58:56;7.60;99.90
8269;DHT22;4174;48.304;16.364;2023-01-10T21:04:59;7.50;99.90
8269;DHT22;4174;48.304;16.364;2023-01-10T21:11:02;7.60;99.90
8269;DHT22;4174;48.304;16.364;2023-01-10T21:17:05;7.60;99.90
8269;DHT22;4174;48.304;16.364;2023-01-10T21:23:08;7.70;99.90
8269;DHT22;4174;48.304;16.364;2023-01-10T21:29:12;7.60;99.90
8269;DHT22;4174;48.304;16.364;2023-01-10T21:35:16;7.70;99.90
8269;DHT22;4174;48.304;16.364;2023-01-10T21:41:19;7.70;99.90
8269;DHT22;4174;48.304;16.364;2023-01-10T21:47:28;7.70;99.90
8269;DHT22;4174;48.304;16.364;2023-01-10T21:53:32;7.70;99.90
8269;DHT22;4174;48.304;16.364;2023-01-10T21:59:35;7.70;99.90
8269;DHT22;4174;48.304;16.364;2023-01-10T22:05:40;7.70;99.90
8269;DHT22;4174;48.304;16.364;2023-01-10T22:11:43;7.80;99.90
8269;DHT22;4174;48.304;16.364;2023-01-10T22:17:48;7.70;99.90
8269;DHT22;4174;48.304;16.364;2023-01-10T22:23:52;7.70;99.90
8269;DHT22;4174;48.304;16.364;2023-01-10T22:29:57;7.50;99.90
8269;DHT22;4174;48.304;16.364;2023-01-10T22:36:04;7.50;99.90
8269;DHT22;4174;48.304;16.364;2023-01-10T22:42:08;7.40;99.90
8269;DHT22;4174;48.304;16.364;2023-01-10T22:48:12;7.50;99.90
8269;DHT22;4174;48.304;16.364;2023-01-10T22:54:16;7.30;99.90
8269;DHT22;4174;48.304;16.364;2023-01-10T23:00:20;7.30;99.90
8269;DHT22;4174;48.304;16.364;2023-01-10T23:06:24;7.40;99.90
8269;DHT22;4174;48.304;16.364;2023-01-10T23:12:28;7.40;99.90
8269;DHT22;4174;48.304;16.364;2023-01-10T23:18:32;7.40;99.90
8269;DHT22;4174;48.304;16.364;2023-01-10T23:24:35;7.40;99.90
8269;DHT22;4174;48.304;16.364;2023-01-10T23:30:39;7.50;99.90
8269;DHT22;4174;48.304;16.364;2023-01-10T23:36:41;7.50;99.90
8269;DHT22;4174;48.304;16.364;2023-01-10T23:42:45;7.50;99.90
8269;DHT22;4174;48.304;16.364;2023-01-10T23:48:48;7.50;99.90
8269;DHT22;4174;48.304;16.364;2023-01-10T23:54:52;7.30;99.90
